Time;durP1;ratioP1;P1;durP2;ratioP2;P2;SDS_P1;SDS_P2;PMS_P1;PMS_P2;Temp;Humidity;BMP_temperature;BMP_pressure;BME280_temperature;BME280_humidity;BME280_pressure;Samples;Min_cycle;Max_cycle;Signal;HPM_P1;HPM_P2
2022/04/29 02:18:20;;;;;;;31.13;14.60;;;;;;;7.81;100.00;101671.50;10316148;23;10002030;-62
2022/04/29 02:23:23;;;;;;;23.90;13.13;;;;;;;7.85;100.00;101670.75;10257149;29;20247;-64
2022/04/29 02:28:27;;;;;;;30.37;14.23;;;;;;;7.91;100.00;101655.34;10261227;29;20234;-65
2022/04/29 02:33:32;;;;;;;24.37;13.80;;;;;;;7.90;100.00;101662.22;9916864;28;10000373;-65
2022/04/29 02:38:35;;;;;;;26.23;14.13;;;;;;;7.89;100.00;101659.59;10257780;29;20677;-66
2022/04/29 02:43:40;;;;;;;28.13;14.40;;;;;;;7.88;100.00;101653.59;10257347;29;20215;-66
2022/04/29 02:48:47;;;;;;;30.23;15.37;;;;;;;7.86;100.00;101656.97;10257412;29;20224;-67
2022/04/29 02:53:51;;;;;;;28.63;14.43;;;;;;;7.85;100.00;101645.75;10257541;29;20621;-66
2022/04/29 02:58:54;;;;;;;24.43;13.80;;;;;;;7.97;100.00;101647.75;10256637;28;20236;-66
2022/04/29 03:03:59;;;;;;;23.73;12.90;;;;;;;8.10;100.00;101645.44;10256344;29;20236;-67
2022/04/29 03:09:02;;;;;;;24.90;12.90;;;;;;;8.08;100.00;101649.69;10256644;29;20238;-67
2022/04/29 03:14:06;;;;;;;25.93;13.27;;;;;;;8.27;100.00;101650.97;10256936;29;20226;-66
2022/04/29 03:19:10;;;;;;;28.10;14.40;;;;;;;8.28;100.00;101649.25;10256057;29;20246;-65
2022/04/29 03:24:14;;;;;;;23.35;13.15;;;;;;;8.31;100.00;101654.50;10255561;29;20371;-68
2022/04/29 03:29:17;;;;;;;24.27;13.13;;;;;;;8.43;100.00;101662.50;10255755;29;20225;-67
2022/04/29 03:34:24;;;;;;;22.90;11.23;;;;;;;8.46;100.00;101650.50;10255289;29;20219;-66
2022/04/29 03:39:28;;;;;;;23.87;11.57;;;;;;;8.50;100.00;101656.59;10255431;29;20228;-66
2022/04/29 03:44:31;;;;;;;20.70;11.17;;;;;;;8.52;100.00;101650.63;10255506;29;20624;-66
2022/04/29 03:49:38;;;;;;;23.27;11.83;;;;;;;8.55;100.00;101654.97;10254901;29;20228;-65
2022/04/29 03:54:42;;;;;;;27.33;12.87;;;;;;;8.50;100.00;101654.88;10254977;29;20220;-66
2022/04/29 03:59:45;;;;;;;26.63;14.47;;;;;;;8.49;100.00;101660.88;10253469;29;20429;-70
2022/04/29 04:04:50;;;;;;;20.03;11.97;;;;;;;8.56;100.00;101670.50;10256028;29;20232;-70
2022/04/29 04:09:53;;;;;;;25.43;12.53;;;;;;;8.62;100.00;101672.34;10257426;29;20226;-67
2022/04/29 04:14:59;;;;;;;23.77;11.57;;;;;;;8.69;100.00;101675.09;10257002;28;20797;-69
2022/04/29 04:20:06;;;;;;;22.43;11.40;;;;;;;8.63;100.00;101672.38;10257789;29;20569;-65
2022/04/29 04:25:11;;;;;;;17.53;9.93;;;;;;;8.69;100.00;101667.31;10257086;29;20228;-63
2022/04/29 04:30:14;;;;;;;20.27;10.50;;;;;;;8.85;100.00;101656.38;10257073;29;20227;-66
2022/04/29 04:35:20;;;;;;;21.00;9.30;;;;;;;8.97;100.00;101661.78;10256654;29;20230;-69
2022/04/29 04:40:23;;;;;;;19.23;10.00;;;;;;;9.04;100.00;101657.59;10256654;29;20229;-68
2022/04/29 04:45:26;;;;;;;19.50;9.70;;;;;;;9.09;100.00;101661.97;10256634;29;20236;-71
2022/04/29 04:50:31;;;;;;;17.47;9.17;;;;;;;9.25;98.17;101660.50;10256577;29;20216;-69
2022/04/29 04:55:34;;;;;;;19.53;8.57;;;;;;;9.25;97.71;101669.16;10256474;29;20224;-71
2022/04/29 05:00:39;;;;;;;22.07;9.63;;;;;;;9.31;96.83;101669.28;10256393;29;20224;-70
2022/04/29 05:05:43;;;;;;;24.33;9.57;;;;;;;9.30;98.07;101664.06;10256128;29;20610;-69
2022/04/29 05:10:48;;;;;;;25.20;11.03;;;;;;;9.42;97.08;101664.25;10256363;29;20234;-69
2022/04/29 05:15:52;;;;;;;22.63;10.47;;;;;;;9.45;98.48;101660.84;10256122;29;20224;-70
2022/04/29 05:20:56;;;;;;;24.63;10.97;;;;;;;9.45;96.96;101661.72;10255483;29;20314;-70
2022/04/29 05:26:00;;;;;;;23.00;10.57;;;;;;;9.43;97.88;101658.22;10262314;28;20236;-69
2022/04/29 05:31:04;;;;;;;23.77;9.53;;;;;;;9.41;98.48;101666.81;10263364;29;20224;-70
2022/04/29 05:36:11;;;;;;;22.73;10.37;;;;;;;9.42;98.26;101665.97;10263060;29;20299;-68
2022/04/29 05:46:35;;;;;;;19.37;9.93;;;;;;;9.53;98.95;101672.19;10262843;29;20227;-65
2022/04/29 05:51:40;;;;;;;22.87;10.33;;;;;;;9.72;97.55;101672.47;10262394;29;20262;-69
2022/04/29 05:56:43;;;;;;;21.73;10.23;;;;;;;9.88;96.97;101676.16;10262320;28;20235;-67
2022/04/29 06:01:46;;;;;;;19.70;9.47;;;;;;;9.95;97.27;101676.28;10251473;29;20212;-69
2022/04/29 06:06:51;;;;;;;19.03;10.37;;;;;;;10.07;97.17;101676.44;10251769;28;20228;-70
2022/04/29 06:11:55;;;;;;;22.87;9.13;;;;;;;10.22;96.36;101688.75;10261831;29;20230;-68
2022/04/29 06:17:04;;;;;;;14.07;9.40;;;;;;;10.36;95.40;101697.56;10261333;29;20307;-66
2022/04/29 06:22:09;;;;;;;20.33;9.07;;;;;;;10.56;93.65;101693.47;10261379;29;20200;-68
2022/04/29 06:27:12;;;;;;;16.03;8.03;;;;;;;10.78;92.08;101692.00;10241615;29;20543;-70
2022/04/29 06:32:15;;;;;;;20.60;9.33;;;;;;;11.02;89.87;101690.53;10241284;29;20542;-67
2022/04/29 06:37:21;;;;;;;25.10;9.23;;;;;;;11.25;88.81;101701.13;10243243;29;20200;-67
2022/04/29 06:42:27;;;;;;;22.03;8.93;;;;;;;11.47;88.41;101692.66;10251259;29;20264;-68
2022/04/29 06:47:31;;;;;;;19.37;10.53;;;;;;;11.59;88.93;101700.53;10246951;29;20430;-70
2022/04/29 06:52:37;;;;;;;17.63;9.57;;;;;;;11.70;87.09;101687.66;10246889;29;20610;-68
2022/04/29 06:57:40;;;;;;;16.40;9.00;;;;;;;11.79;85.87;101703.28;10242884;29;20196;-68
2022/04/29 07:02:44;;;;;;;17.97;9.60;;;;;;;11.89;86.43;101695.56;10238979;29;20203;-67
2022/04/29 07:07:49;;;;;;;18.90;9.13;;;;;;;12.00;84.28;101700.81;10245567;29;20243;-67
2022/04/29 07:12:55;;;;;;;17.13;9.30;;;;;;;12.00;83.63;101696.50;10243791;29;20197;-68
2022/04/29 07:17:59;;;;;;;17.30;9.23;;;;;;;12.13;84.99;101703.50;10241861;29;20232;-69
2022/04/29 07:23:03;;;;;;;20.30;9.13;;;;;;;12.37;82.93;101698.41;10242073;29;20197;-67
2022/04/29 07:28:07;;;;;;;15.00;8.87;;;;;;;12.54;82.60;101704.56;10237386;29;20558;-66
2022/04/29 07:33:13;;;;;;;16.57;9.47;;;;;;;12.72;81.88;101704.59;10241539;29;20188;-68
2022/04/29 07:43:38;;;;;;;20.83;9.73;;;;;;;12.94;78.09;101697.72;10238872;29;20227;-69
2022/04/29 07:48:41;;;;;;;17.37;8.43;;;;;;;12.91;78.52;101687.25;10238136;29;20226;-69
2022/04/29 07:53:46;;;;;;;16.17;8.13;;;;;;;13.03;79.12;101692.53;10247441;29;20223;-67
2022/04/29 07:58:49;;;;;;;17.83;9.03;;;;;;;13.07;79.17;101686.47;10237655;29;20216;-71
2022/04/29 08:03:53;;;;;;;16.07;8.27;;;;;;;13.10;77.08;101683.00;10237419;29;20208;-70
2022/04/29 08:08:58;;;;;;;20.50;8.07;;;;;;;12.94;76.65;101676.00;10238202;29;20235;-69
2022/04/29 08:14:01;;;;;;;22.27;8.40;;;;;;;12.93;78.20;101684.66;10236656;29;20226;-67
2022/04/29 08:19:25;;;;;;;17.07;8.47;;;;;;;13.04;76.76;101675.16;10237876;29;20236;-69
2022/04/29 08:24:29;;;;;;;18.00;8.03;;;;;;;13.06;76.95;101666.50;10238701;29;20231;-67
2022/04/29 08:29:33;;;;;;;15.07;8.10;;;;;;;13.13;75.82;101663.00;10236284;29;20698;-67
2022/04/29 08:34:36;;;;;;;15.40;8.47;;;;;;;13.24;74.59;101652.56;10241978;29;21127;-67
2022/04/29 08:39:42;;;;;;;15.37;8.77;;;;;;;13.45;73.82;101652.56;10235817;29;20226;-71
2022/04/29 08:44:46;;;;;;;15.53;8.07;;;;;;;13.52;73.07;101655.16;10243019;29;20312;-69
2022/04/29 08:49:50;;;;;;;17.80;9.70;;;;;;;13.74;72.85;101650.75;10224601;29;20448;-69
2022/04/29 09:00:16;;;;;;;13.77;7.20;;;;;;;14.21;70.36;101645.38;10241833;29;20278;-67
2022/04/29 09:05:25;;;;;;;14.70;8.00;;;;;;;14.51;68.98;101640.06;10244796;29;20304;-69
2022/04/29 09:10:34;;;;;;;19.53;8.23;;;;;;;14.81;66.29;101635.50;9886289;28;10000093;-70
2022/04/29 09:15:37;;;;;;;13.70;7.50;;;;;;;15.11;65.53;101630.91;10249707;29;20216;-68
2022/04/29 09:20:41;;;;;;;14.57;8.13;;;;;;;15.28;64.25;101622.06;10242644;29;20242;-64
2022/04/29 09:25:46;;;;;;;18.87;10.90;;;;;;;15.66;62.81;101612.09;10240656;29;20220;-67
2022/04/29 09:30:50;;;;;;;15.23;7.97;;;;;;;16.14;61.82;101601.06;10243823;29;20696;-68
2022/04/29 09:35:55;;;;;;;12.80;7.27;;;;;;;17.38;59.41;101587.78;10252299;29;20674;-65
2022/04/29 09:41:00;;;;;;;14.33;7.97;;;;;;;18.03;56.70;101577.72;10258599;29;20403;-67
2022/04/29 09:46:15;;;;;;;14.00;8.30;;;;;;;18.42;52.65;101582.16;10239249;29;20216;-67
2022/04/29 09:51:39;;;;;;;13.63;7.80;;;;;;;17.04;55.01;101577.00;10237639;29;20220;-64
2022/04/29 09:56:45;;;;;;;14.03;8.67;;;;;;;16.38;57.65;101583.25;10244099;29;20727;-68
2022/04/29 10:01:48;;;;;;;17.13;7.70;;;;;;;15.81;60.45;101584.88;10237152;29;20614;-68
2022/04/29 10:06:52;;;;;;;13.83;7.83;;;;;;;15.65;58.79;101593.81;10252142;29;20220;-67
2022/04/29 10:11:58;;;;;;;12.73;7.47;;;;;;;15.43;58.02;101600.16;10257796;28;20220;-68
2022/04/29 10:22:25;;;;;;;13.67;8.40;;;;;;;15.44;61.40;101594.91;10258845;29;20224;-67
2022/04/29 10:27:30;;;;;;;17.60;8.53;;;;;;;15.50;59.63;101586.09;10257690;29;20228;-65
2022/04/29 10:33:01;;;;;;;15.73;9.00;;;;;;;15.79;60.45;101582.28;10257847;28;20220;-67
2022/04/29 10:38:13;;;;;;;12.50;8.03;;;;;;;16.62;58.97;101575.09;10257271;29;20230;-62
2022/04/29 10:43:20;;;;;;;15.00;8.40;;;;;;;16.73;57.13;101576.66;10257222;29;20227;-67
2022/04/29 10:48:34;;;;;;;17.23;9.00;;;;;;;17.90;55.76;101568.38;10245233;29;20220;-65
2022/04/29 10:53:38;;;;;;;16.93;8.33;;;;;;;18.54;52.48;101562.59;10237940;29;20691;-67
2022/04/29 10:58:46;;;;;;;14.97;7.90;;;;;;;19.83;53.40;101550.41;10234873;29;20239;-66
2022/04/29 11:03:50;;;;;;;17.47;8.97;;;;;;;20.88;47.95;101545.41;10242956;29;20224;-64
2022/04/29 11:08:53;;;;;;;19.90;8.53;;;;;;;21.22;48.83;101538.06;10236136;29;20216;-67
2022/04/29 11:14:01;;;;;;;16.20;7.93;;;;;;;21.18;46.63;101531.16;10237360;29;20224;-63
2022/04/29 11:19:21;;;;;;;13.40;7.10;;;;;;;20.04;49.40;101536.63;10238176;29;20237;-67
2022/04/29 11:24:42;;;;;;;15.53;7.43;;;;;;;19.29;50.41;101541.41;10245047;28;20609;-65
2022/04/29 11:29:49;;;;;;;13.40;7.27;;;;;;;18.42;53.21;101542.72;10236333;29;20671;-68
2022/04/29 11:34:53;;;;;;;13.37;5.57;;;;;;;17.71;56.38;101553.00;10238934;29;20306;-70
2022/04/29 11:39:58;;;;;;;10.97;5.63;;;;;;;17.14;59.97;101555.84;10234926;29;20223;-69
2022/04/29 11:45:06;;;;;;;9.50;5.47;;;;;;;16.89;59.18;101551.91;10243771;29;20213;-67
2022/04/29 11:50:10;;;;;;;10.47;5.17;;;;;;;16.76;60.12;101544.25;10238490;29;20726;-65
2022/04/29 11:55:15;;;;;;;10.50;5.50;;;;;;;16.76;59.75;101541.63;10233969;29;20233;-69
2022/04/29 12:00:24;;;;;;;12.23;6.13;;;;;;;16.92;60.44;101535.25;10238044;29;20668;-68
2022/04/29 12:05:29;;;;;;;10.03;6.17;;;;;;;17.50;58.44;101530.69;10229428;29;20721;-68
2022/04/29 12:10:33;;;;;;;11.57;6.47;;;;;;;18.96;55.44;101524.72;10256321;29;20561;-65
2022/04/29 12:15:39;;;;;;;9.70;5.80;;;;;;;18.59;55.17;101513.38;10256380;29;20232;-67
2022/04/29 12:20:59;;;;;;;9.90;5.87;;;;;;;17.62;57.88;101517.31;10536630;27;20634;-67
2022/04/29 12:26:04;;;;;;;10.80;5.10;;;;;;;16.92;62.87;101523.00;10536873;28;20249;-67
2022/04/29 12:36:46;;;;;;;10.93;6.27;;;;;;;16.84;63.64;101508.28;10528490;28;20262;-66
2022/04/29 12:42:00;;;;;;;10.17;6.53;;;;;;;17.79;59.89;101501.22;10533208;28;20218;-69
2022/04/29 12:47:22;;;;;;;11.47;5.80;;;;;;;19.44;55.49;101483.06;10531508;28;20295;-66
2022/04/29 12:52:27;;;;;;;11.03;5.23;;;;;;;19.60;55.44;101480.88;10533336;28;20229;-69
2022/04/29 12:57:31;;;;;;;10.00;5.70;;;;;;;18.41;55.79;101471.78;10534474;28;20219;-67
2022/04/29 13:02:34;;;;;;;10.47;5.80;;;;;;;17.80;57.66;101477.53;10531462;28;20194;-66
2022/04/29 13:07:41;;;;;;;12.97;6.67;;;;;;;17.98;56.53;101469.25;10531979;28;20726;-67
2022/04/29 13:12:47;;;;;;;10.80;5.90;;;;;;;17.80;57.01;101461.78;10534541;28;20583;-66
2022/04/29 13:17:50;;;;;;;10.53;5.60;;;;;;;17.54;59.84;101466.72;10534267;28;20232;-68
2022/04/29 13:22:55;;;;;;;11.43;5.60;;;;;;;17.53;58.64;101472.88;10534142;28;20239;-65
2022/04/29 13:27:58;;;;;;;12.63;6.53;;;;;;;17.17;58.77;101473.59;10531034;28;20216;-63
2022/04/29 13:33:02;;;;;;;9.57;5.60;;;;;;;16.93;59.98;101467.03;10505795;28;20220;-64
2022/04/29 13:38:08;;;;;;;10.23;6.73;;;;;;;16.95;61.13;101464.38;10505873;28;20307;-65
2022/04/29 13:43:12;;;;;;;10.43;6.40;;;;;;;17.47;58.00;101457.25;10505472;28;20254;-72
2022/04/29 13:48:16;;;;;;;9.93;5.80;;;;;;;17.19;60.06;101462.16;10505735;28;20554;-70
2022/04/29 13:53:21;;;;;;;7.80;5.33;;;;;;;16.81;60.05;101453.25;10504875;28;20306;-68
2022/04/29 13:58:25;;;;;;;12.07;5.83;;;;;;;16.50;60.99;101447.69;10505320;28;20445;-71
2022/04/29 14:03:28;;;;;;;8.83;5.63;;;;;;;16.49;61.32;101450.34;10504010;28;20212;-70
2022/04/29 14:08:33;;;;;;;10.70;5.97;;;;;;;17.37;58.12;101433.81;10501707;28;20560;-70
2022/04/29 14:13:37;;;;;;;9.07;6.07;;;;;;;17.07;58.08;101437.91;10503203;28;20287;-71
2022/04/29 14:18:41;;;;;;;10.67;5.53;;;;;;;16.87;59.31;101426.94;10499061;28;20268;-67
2022/04/29 14:23:45;;;;;;;10.27;5.60;;;;;;;17.51;57.44;101430.03;10501330;28;20303;-67
2022/04/29 14:28:49;;;;;;;14.43;5.63;;;;;;;19.12;52.94;101414.66;10503052;28;20558;-68
2022/04/29 14:33:53;;;;;;;11.47;5.57;;;;;;;19.71;50.57;101411.13;10500080;28;20204;-68
2022/04/29 14:38:57;;;;;;;13.13;5.97;;;;;;;18.60;51.35;101419.59;10502649;28;20294;-68
2022/04/29 14:44:01;;;;;;;10.67;4.90;;;;;;;17.92;53.45;101416.84;10498626;28;20215;-68
2022/04/29 14:49:04;;;;;;;9.90;5.17;;;;;;;18.04;54.17;101423.56;10499451;28;20216;-67
2022/04/29 14:54:09;;;;;;;10.37;5.40;;;;;;;17.91;53.54;101417.72;10501022;28;20657;-68
2022/04/29 14:59:13;;;;;;;13.50;5.20;;;;;;;17.92;52.76;101410.72;10488666;28;20220;-66
2022/04/29 15:04:16;;;;;;;13.33;5.33;;;;;;;18.37;51.38;101402.59;10502427;28;20251;-70
2022/04/29 15:20:08;;;;;;;15.73;5.00;;;;;;;17.13;55.55;101393.19;10498467;28;20236;-68
2022/04/29 15:25:14;;;;;;;11.83;4.80;;;;;;;17.05;55.25;101395.97;10147394;27;10000576;-66
2022/04/29 15:30:17;;;;;;;8.63;4.97;;;;;;;16.96;54.30;101393.50;10488069;28;20222;-65
2022/04/29 15:35:21;;;;;;;8.90;5.17;;;;;;;16.72;55.92;101395.78;10457078;28;20293;-70
2022/04/29 15:40:25;;;;;;;47.93;38.97;;;;;;;16.56;54.87;101399.56;10456702;28;20235;-66
2022/04/29 15:45:29;;;;;;;7.37;4.67;;;;;;;16.33;55.65;101392.06;10456343;28;20224;-70
2022/04/29 15:50:32;;;;;;;8.53;4.53;;;;;;;16.40;56.01;101393.69;10456247;28;20219;-64
2022/04/29 15:55:37;;;;;;;7.63;4.40;;;;;;;16.71;54.38;101383.53;10456171;28;20220;-69
2022/04/29 16:00:41;;;;;;;11.13;4.53;;;;;;;16.82;53.87;101387.69;10495123;28;20222;-66
2022/04/29 16:05:45;;;;;;;7.03;3.87;;;;;;;16.86;53.66;101381.47;10471497;28;20216;-67
2022/04/29 16:10:50;;;;;;;7.67;4.57;;;;;;;16.79;57.31;101392.13;10500108;28;20224;-67
2022/04/29 16:15:54;;;;;;;10.13;4.27;;;;;;;16.67;55.27;101384.50;10500022;28;20216;-65
2022/04/29 16:20:57;;;;;;;7.10;4.17;;;;;;;16.48;56.68;101380.47;10500005;28;20219;-66
2022/04/29 16:26:02;;;;;;;7.97;4.77;;;;;;;16.22;59.15;101388.75;10498403;28;20352;-68
2022/04/29 16:31:06;;;;;;;16.23;7.20;;;;;;;16.15;56.97;101385.34;10499201;28;20680;-66
2022/04/29 16:36:09;;;;;;;10.90;5.57;;;;;;;15.91;58.24;101388.38;10500406;28;20228;-66
2022/04/29 16:41:15;;;;;;;11.10;5.03;;;;;;;15.92;57.83;101379.63;10499712;28;20216;-65
2022/04/29 16:46:19;;;;;;;17.00;8.40;;;;;;;15.83;59.17;101385.00;10499585;28;20216;-66
2022/04/29 16:51:23;;;;;;;12.00;5.43;;;;;;;15.68;60.81;101389.59;10493981;28;20547;-64
2022/04/29 16:56:28;;;;;;;14.30;5.47;;;;;;;15.58;62.33;101386.25;10470256;28;20227;-64
2022/04/29 17:01:32;;;;;;;10.37;5.13;;;;;;;15.55;62.58;101388.91;10457655;28;20221;-63
2022/04/29 17:06:35;;;;;;;14.87;5.33;;;;;;;15.56;63.32;101395.00;10485149;28;20220;-64
2022/04/29 17:11:40;;;;;;;14.00;5.30;;;;;;;15.49;59.82;101407.31;10506802;28;20192;-65
2022/04/29 17:16:43;;;;;;;9.77;5.10;;;;;;;15.46;61.04;101409.13;10506500;28;20226;-67
2022/04/29 17:21:50;;;;;;;9.50;4.77;;;;;;;15.31;62.39;101410.13;10478452;28;20776;-66
2022/04/29 17:26:55;;;;;;;10.77;5.33;;;;;;;15.16;61.06;101412.94;10501704;28;20208;-64
2022/04/29 17:31:58;;;;;;;25.03;15.47;;;;;;;15.04;64.02;101418.31;10506704;28;20641;-65
2022/04/29 17:37:02;;;;;;;9.37;4.80;;;;;;;14.99;61.36;101418.38;10505867;28;20193;-64
2022/04/29 17:42:22;;;;;;;11.20;4.97;;;;;;;14.88;62.00;101433.28;10505969;28;20585;-65
2022/04/29 17:47:26;;;;;;;9.43;5.57;;;;;;;14.78;63.63;101434.28;10506197;28;20261;-66
2022/04/29 17:52:29;;;;;;;9.40;4.93;;;;;;;14.69;62.90;101430.88;10505253;28;20196;-67
2022/04/29 17:57:34;;;;;;;13.30;6.17;;;;;;;14.38;66.74;101442.47;10505102;28;20589;-68
2022/04/29 18:02:38;;;;;;;12.77;5.90;;;;;;;14.19;69.91;101452.16;10505174;28;20234;-68
2022/04/29 18:07:43;;;;;;;11.90;5.60;;;;;;;14.03;69.92;101454.91;10504698;28;20268;-68
2022/04/29 18:12:48;;;;;;;12.33;6.00;;;;;;;13.87;71.70;101460.22;10504310;28;20212;-65
2022/04/29 18:17:51;;;;;;;12.73;6.53;;;;;;;13.77;71.88;101468.13;10504260;28;20232;-66
2022/04/29 18:22:57;;;;;;;12.10;6.17;;;;;;;13.73;70.20;101477.72;10504369;28;20515;-65
2022/04/29 18:28:02;;;;;;;21.80;12.37;;;;;;;13.66;68.25;101470.78;10504187;28;20212;-66
2022/04/29 18:33:06;;;;;;;14.37;7.20;;;;;;;13.49;71.40;101467.38;10506152;28;20299;-68
2022/04/29 18:38:09;;;;;;;10.53;6.30;;;;;;;13.35;74.02;101478.72;10503484;28;20218;-66
2022/04/29 18:43:17;;;;;;;11.43;6.43;;;;;;;13.18;76.38;101480.53;10503163;28;20545;-65
2022/04/29 18:48:20;;;;;;;10.33;5.80;;;;;;;13.12;74.66;101480.53;10503442;28;20227;-68
2022/04/29 18:53:24;;;;;;;12.70;6.10;;;;;;;13.04;76.35;101484.91;10502953;28;20212;-64
2022/04/29 18:58:31;;;;;;;14.13;6.50;;;;;;;12.90;78.93;101484.91;10502988;28;20251;-64
2022/04/29 19:03:34;;;;;;;14.67;7.07;;;;;;;12.85;76.72;101486.66;10502999;28;20207;-65
2022/04/29 19:08:38;;;;;;;11.07;6.20;;;;;;;12.79;77.32;101489.25;10490403;28;20228;-65
2022/04/29 19:13:42;;;;;;;13.23;6.77;;;;;;;12.87;73.24;101489.25;10502250;28;20548;-64
2022/04/29 19:18:46;;;;;;;10.10;6.10;;;;;;;12.69;77.21;101488.41;10501788;28;20236;-66
2022/04/29 19:23:49;;;;;;;11.77;6.80;;;;;;;12.53;76.56;101488.38;10502188;28;20212;-67
2022/04/29 19:28:54;;;;;;;12.20;6.77;;;;;;;12.52;79.96;101492.75;10501446;28;20676;-64
2022/04/29 19:33:57;;;;;;;13.10;7.27;;;;;;;12.47;79.90;101488.41;10502483;28;20566;-70
2022/04/29 19:39:05;;;;;;;11.77;6.57;;;;;;;12.35;82.00;101494.47;10501071;28;20238;-64
2022/04/29 19:44:10;;;;;;;15.47;7.43;;;;;;;12.26;85.16;101498.78;10501195;28;20244;-65
2022/04/29 19:49:13;;;;;;;17.43;10.53;;;;;;;12.20;87.80;101488.38;10500873;28;20216;-63
2022/04/29 19:54:20;;;;;;;14.00;7.47;;;;;;;12.10;87.11;101502.22;10498240;28;20244;-65
2022/04/29 19:59:25;;;;;;;14.13;8.30;;;;;;;12.01;87.01;101497.03;10497578;28;20227;-66
2022/04/29 20:04:28;;;;;;;18.23;8.00;;;;;;;11.97;84.99;101503.94;10498707;28;20283;-63
2022/04/29 20:09:33;;;;;;;13.97;7.33;;;;;;;11.84;87.89;101504.75;10497442;28;20247;-65
2022/04/29 20:14:37;;;;;;;13.00;7.57;;;;;;;11.82;89.23;101495.22;10497298;28;20212;-63
2022/04/29 20:19:44;;;;;;;14.33;8.03;;;;;;;11.85;88.52;101503.03;10497440;28;20247;-66
2022/04/29 20:24:48;;;;;;;19.43;9.53;;;;;;;11.85;88.94;101495.22;10497170;28;20627;-65
2022/04/29 20:29:53;;;;;;;15.93;9.17;;;;;;;11.87;89.96;101496.13;10497015;28;20219;-66
2022/04/29 20:34:56;;;;;;;15.30;8.50;;;;;;;11.85;89.48;101495.22;10498148;28;20294;-66
2022/04/29 20:45:21;;;;;;;16.20;7.90;;;;;;;11.68;90.14;101492.59;10505188;28;20354;-65
2022/04/29 20:50:24;;;;;;;14.17;8.03;;;;;;;11.72;91.39;101494.31;10504778;28;20220;-67
2022/04/29 20:55:28;;;;;;;15.00;8.47;;;;;;;11.69;93.69;101502.13;10504565;28;20568;-66
2022/04/29 21:00:33;;;;;;;13.43;8.07;;;;;;;11.65;94.87;101504.72;10504506;28;20238;-65
2022/04/29 21:05:38;;;;;;;18.73;9.67;;;;;;;11.61;96.62;101507.25;10505346;28;20212;-67
2022/04/29 21:10:41;;;;;;;16.97;9.37;;;;;;;11.58;93.96;101516.75;10504481;28;20220;-63
2022/04/29 21:15:48;;;;;;;15.48;8.10;;;;;;;11.47;94.96;101508.94;10155820;27;9999792;-63
2022/04/29 21:20:51;;;;;;;15.10;8.83;;;;;;;11.38;95.97;101513.22;10545457;28;20283;-66
2022/04/29 21:25:54;;;;;;;17.03;9.50;;;;;;;11.29;96.53;101515.75;10545636;28;20298;-65
2022/04/29 21:31:00;;;;;;;16.93;9.47;;;;;;;11.20;97.38;101513.97;10545244;28;20302;-66
2022/04/29 21:36:04;;;;;;;17.03;9.10;;;;;;;11.11;97.34;101507.88;10545433;28;20683;-65
2022/04/29 21:41:08;;;;;;;17.70;10.53;;;;;;;11.02;97.64;101511.28;10545775;28;20645;-64
2022/04/29 21:46:12;;;;;;;14.83;9.47;;;;;;;10.97;97.44;101512.09;10544517;28;20852;-65
2022/04/29 21:51:16;;;;;;;15.60;8.50;;;;;;;10.85;98.49;101512.00;10543820;28;20211;-67
2022/04/29 21:56:20;;;;;;;18.07;10.10;;;;;;;10.77;98.94;101517.13;10544370;28;20222;-64
2022/04/29 22:01:24;;;;;;;20.30;10.53;;;;;;;10.69;100.00;101512.75;10543797;28;20215;-65
2022/04/29 22:06:28;;;;;;;17.03;9.50;;;;;;;10.60;100.00;101513.53;10544312;28;20226;-65
2022/04/29 22:11:32;;;;;;;18.17;9.40;;;;;;;10.55;100.00;101511.75;10544327;28;20215;-68
2022/04/29 22:16:37;;;;;;;17.20;9.23;;;;;;;10.46;100.00;101507.34;10533028;28;20236;-67
2022/04/29 22:21:41;;;;;;;18.20;10.00;;;;;;;10.34;100.00;101512.44;10501325;28;20665;-64
2022/04/29 22:26:44;;;;;;;17.47;10.53;;;;;;;10.30;100.00;101510.69;10500932;28;20238;-67
2022/04/29 22:31:49;;;;;;;20.70;10.67;;;;;;;10.14;100.00;101509.69;10501008;28;20224;-65
2022/04/29 22:36:52;;;;;;;21.07;10.47;;;;;;;10.16;100.00;101509.69;10501046;28;20226;-66
2022/04/29 22:41:55;;;;;;;18.50;10.03;;;;;;;10.07;100.00;101500.06;10502211;28;20236;-64
2022/04/29 22:47:00;;;;;;;16.50;9.43;;;;;;;10.01;100.00;101507.75;10500358;28;20212;-66
2022/04/29 22:52:05;;;;;;;16.73;10.67;;;;;;;9.96;100.00;101499.06;10500542;28;20319;-60
2022/04/29 22:57:09;;;;;;;21.73;11.17;;;;;;;9.87;100.00;101505.88;10499849;28;20216;-63
2022/04/29 23:02:14;;;;;;;17.87;10.70;;;;;;;9.83;100.00;101496.31;10499025;28;20224;-66
2022/04/29 23:07:17;;;;;;;19.30;11.20;;;;;;;9.65;100.00;101494.38;10499632;28;20181;-66
2022/04/29 23:12:21;;;;;;;18.60;10.33;;;;;;;9.63;100.00;101497.84;10499976;28;20214;-65
2022/04/29 23:22:46;;;;;;;17.93;11.33;;;;;;;9.50;100.00;101501.97;10540591;28;20218;-66
2022/04/29 23:27:49;;;;;;;18.33;11.80;;;;;;;9.41;100.00;101503.56;10540863;28;20188;-68
2022/04/29 23:32:54;;;;;;;24.10;11.90;;;;;;;9.30;100.00;101503.47;10540454;28;20282;-65
2022/04/29 23:37:58;;;;;;;21.63;11.60;;;;;;;9.23;100.00;101501.63;10542996;28;20192;-67
2022/04/29 23:43:01;;;;;;;24.37;12.73;;;;;;;9.29;100.00;101493.94;10543398;28;20216;-69
2022/04/29 23:48:06;;;;;;;20.27;11.40;;;;;;;9.26;100.00;101497.38;10544794;28;20199;-66
2022/04/29 23:53:10;;;;;;;23.03;12.07;;;;;;;9.19;100.00;101492.06;10543347;28;20517;-64
2022/04/29 23:58:13;;;;;;;27.00;13.67;;;;;;;9.15;100.00;101491.16;10543173;28;20202;-62
